Flight Track Log - Related Links

Times and Time Zones

All times are in EDT time to prevent confusion due to time zone crossing. See the N137TK flight status page for this flight to view local times or setup timezone preferences in your user account.

Time Position Orientation Groundspeed Altitude Reporting Facility
EDT Latitude Longitude Course Direction KTS MPH feet Rate Location/Type
Sun 03:27:42 PM 35.3522 -82.5236 180° South 170 196 5,800  Level Atlanta Center
Sun 03:28:42 PM 35.3083 -82.5269 184° South 200 230 7,900 1,900 Climbing Atlanta Center
Sun 03:29:42 PM 35.2986 -82.5831 258° West 182 209 9,600 1,050 Climbing Atlanta Center
Sun 03:30:42 PM 35.2553 -82.6194 214° Southwest 205 236 10,000 200 Climbing Atlanta Center
Sun 03:31:42 PM 35.1950 -82.6433 198° South 214 246 10,000 1,200 Level Atlanta Center
Sun 03:32:00 PM 35.0183 -82.5333 180° South  Level FlightAware Approximate
Sun 03:33:42 PM 35.0906 -82.6300 174° South 196 226 13,600  Level Atlanta Center
Sun 03:34:42 PM 35.0342 -82.6208 172° South 191 220 15,800 1,850 Climbing Atlanta Center
Sun 03:35:42 PM 34.9858 -82.6114 171° South 186 214 17,300 1,300 Climbing Atlanta Center
Sun 03:36:42 PM 34.9358 -82.6097 178° South 186 214 18,400 1,200 Climbing Atlanta Center
Sun 03:37:42 PM 34.8817 -82.6081 179° South 181 208 19,700 1,250 Climbing Atlanta Center
Sun 03:38:42 PM 34.8336 -82.6064 178° South 181 208 20,900 1,250 Climbing Atlanta Center
Sun 03:39:42 PM 34.7833 -82.6047 178° South 181 208 22,200 1,050 Climbing Atlanta Center
Sun 03:40:42 PM 34.7333 -82.6031 178° South 181 208 23,000 500 Climbing Atlanta Center
Sun 03:41:42 PM 34.6686 -82.6017 179° South 201 231 23,200 350 Climbing Atlanta Center
Sun 03:42:42 PM 34.5956 -82.5953 176° South 243 280 23,700 500 Climbing Atlanta Center
Sun 03:43:42 PM 34.5350 -82.5964 181° South 243 280 24,200 550 Climbing Atlanta Center
Sun 03:44:42 PM 34.4661 -82.5925 177° South 248 285 24,800 450 Climbing Atlanta Center
Sun 03:45:42 PM 34.4139 -82.5911 179° South 248 285 25,100 450 Climbing Atlanta Center
Sun 03:46:42 PM 34.3347 -82.5922 181° South 243 280 25,700 450 Climbing Atlanta Center
Sun 03:47:42 PM 34.2719 -82.5958 183° South 243 280 26,000 150 Climbing Atlanta Center
Sun 03:48:42 PM 34.2033 -82.6097 190° South 258 297 26,000  Level Atlanta Center
Sun 03:49:42 PM 34.1325 -82.6233 189° South 249 287 26,000  Level Atlanta Center
Sun 03:50:42 PM 34.0639 -82.6394 191° South 255 293 26,000  Level Atlanta Center
Sun 03:51:42 PM 33.9908 -82.6533 189° South 267 307 26,000  Level Atlanta Center
Sun 03:52:42 PM 33.9222 -82.6694 191° South 261 300 26,000  Level Atlanta Center
Sun 03:53:42 PM 33.8472 -82.6656 178° South 261 300 26,000  Level Atlanta Center
Sun 03:54:42 PM 33.7656 -82.6619 178° South 261 300 26,000  Level Atlanta Center
Sun 03:55:42 PM 33.6925 -82.6581 177° South 266 306 26,000  Level Atlanta Center
Sun 03:56:42 PM 33.6194 -82.6517 176° South 271 312 26,000  Level Atlanta Center
Sun 03:57:42 PM 33.5442 -82.6481 178° South 271 312 26,000  Level Atlanta Center
Sun 03:58:42 PM 33.4711 -82.6417 176° South 271 312 26,000  Level Atlanta Center
Sun 03:59:42 PM 33.3981 -82.6381 178° South 276 318 26,000  Level Atlanta Center
Sun 04:00:42 PM 33.3250 -82.6342 177° South 270 311 26,000  Level Atlanta Center
Sun 04:01:42 PM 33.2558 -82.6253 174° South 265 305 26,000  Level Atlanta Center
Sun 04:02:42 PM 33.1850 -82.6214 177° South 265 305 26,000  Level Atlanta Center
Sun 04:03:42 PM 33.1119 -82.6178 178° South 265 305 26,000  Level Atlanta Center
Sun 04:04:42 PM 33.0389 -82.6189 181° South 265 305 26,000  Level Atlanta Center
Sun 04:05:42 PM 32.9681 -82.6325 189° South 265 305 26,000  Level Atlanta Center
Sun 04:06:42 PM 32.8950 -82.6511 192° South 270 311 26,000  Level Atlanta Center
Sun 04:07:42 PM 32.8242 -82.6644 189° South 270 311 26,000  Level Atlanta Center
Sun 04:08:42 PM 32.7514 -82.6781 189° South 270 311 26,000  Level Atlanta Center
Sun 04:09:42 PM 32.6761 -82.6717 176° South 270 311 26,000  Level Atlanta Center
Sun 04:10:42 PM 32.6031 -82.6556 169° South 270 311 26,000  Level Atlanta Center
Sun 04:12:36 PM 32.4647 -82.6267 170° South 277 319 26,000  Level Jacksonville Center
Sun 04:13:36 PM 32.4022 -82.6097 167° South 277 319 26,000  Level Jacksonville Center
Sun 04:14:36 PM 32.3247 -82.5975 172° South 277 319 26,000  Level Jacksonville Center
Sun 04:15:36 PM 32.2539 -82.5781 167° South 272 313 26,000  Level Jacksonville Center
Sun 04:16:36 PM 32.1828 -82.5636 170° South 272 313 26,000  Level Jacksonville Center
Sun 04:17:36 PM 32.1075 -82.5492 171° South 278 320 26,000  Level Jacksonville Center
Sun 04:18:36 PM 32.0344 -82.5322 169° South 272 313 26,000  Level Jacksonville Center
Sun 04:19:36 PM 31.9633 -82.5181 170° South 272 313 26,000  Level Jacksonville Center
Sun 04:20:36 PM 31.8883 -82.5011 169° South 272 313 26,000  Level Jacksonville Center
Sun 04:21:36 PM 31.8131 -82.4842 169° South 279 321 26,000  Level Jacksonville Center
Sun 04:22:36 PM 31.7358 -82.4675 170° South 274 315 26,000  Level Jacksonville Center
Sun 04:23:36 PM 31.6625 -82.4508 169° South 274 315 26,000  Level Jacksonville Center
Sun 04:24:36 PM 31.5894 -82.4342 169° South 274 315 26,000  Level Jacksonville Center
Sun 04:25:36 PM 31.5183 -82.4172 169° South 274 315 26,000  Level Jacksonville Center
Sun 04:26:36 PM 31.4453 -82.4031 171° South 274 315 26,000  Level Jacksonville Center
Sun 04:27:36 PM 31.3700 -82.3864 169° South 274 315 26,000  Level Jacksonville Center
Sun 04:28:36 PM 31.2969 -82.3722 171° South 274 315 26,000  Level Jacksonville Center
Sun 04:29:36 PM 31.2239 -82.3581 171° South 274 315 26,000  Level Jacksonville Center
Sun 04:30:36 PM 31.1486 -82.3417 169° South 274 315 26,000  Level Jacksonville Center
Sun 04:31:36 PM 31.0775 -82.3250 169° South 274 315 26,000  Level Jacksonville Center
Sun 04:32:36 PM 31.0044 -82.3108 171° South 274 315 26,000  Level Jacksonville Center
Sun 04:33:36 PM 30.9269 -82.2944 170° South 274 315 26,000  Level Jacksonville Center
Sun 04:34:36 PM 30.8581 -82.2778 168° South 279 321 26,000  Level Jacksonville Center
Sun 04:35:36 PM 30.7828 -82.2639 171° South 279 321 26,000  Level Jacksonville Center
Sun 04:36:36 PM 30.7117 -82.2475 169° South 274 315 26,000  Level Jacksonville Center
Sun 04:37:36 PM 30.6364 -82.2311 169° South 274 315 26,000  Level Jacksonville Center
Sun 04:38:36 PM 30.5633 -82.2147 169° South 274 315 26,000  Level Jacksonville Center
Sun 04:39:36 PM 30.4983 -82.1983 168° South 274 315 26,000  Level Jacksonville Center
Sun 04:40:36 PM 30.4253 -82.1794 167° South 274 315 26,000  Level Jacksonville Center
Sun 04:41:37 PM 30.3522 -82.1681 172° South 274 315 26,000  Level Jacksonville Center
Sun 04:42:36 PM 30.2789 -82.1494 168° South 274 315 26,000  Level Jacksonville Center
Sun 04:43:36 PM 30.2078 -82.1356 170° South 274 315 26,000  Level Jacksonville Center
Sun 04:44:36 PM 30.1328 -82.1217 171° South 274 315 26,000  Level Jacksonville Center
Sun 04:45:36 PM 30.0617 -82.1053 169° South 274 315 26,000  Level Jacksonville Center
Sun 04:46:36 PM 29.9781 -82.0942 173° South 274 315 26,000  Level Jacksonville Center
Sun 04:47:36 PM 29.9133 -82.1019 186° South 274 315 26,000  Level Jacksonville Center
Sun 04:48:36 PM 29.8403 -82.1217 193° South 274 315 26,000  Level Jacksonville Center
Sun 04:49:36 PM 29.7694 -82.1436 195° South 274 315 26,000 -50 Level Jacksonville Center
Sun 04:50:36 PM 29.6967 -82.1608 192° South 274 315 25,900 -350 Descending Jacksonville Center
Sun 04:51:36 PM 29.6153 -82.1856 195° South 274 315 25,300 -450 Descending Jacksonville Center
Sun 04:52:36 PM 29.5403 -82.2075 194° South 279 321 25,000 -150 Descending Jacksonville Center
Sun 04:53:36 PM 29.4653 -82.2269 193° South 279 321 25,000  Level Jacksonville Center
Sun 04:54:36 PM 29.3922 -82.2514 196° South 279 321 25,000  Level Jacksonville Center
Sun 04:55:36 PM 29.3172 -82.2733 194° South 279 321 25,000  Level Jacksonville Center
Sun 04:56:36 PM 29.2442 -82.2953 195° South 279 321 25,000  Level Jacksonville Center
Sun 04:57:36 PM 29.1714 -82.3147 193° South 279 321 25,000  Level Jacksonville Center
Sun 04:58:36 PM 29.1003 -82.3389 197° South 279 321 25,000  Level Jacksonville Center
Sun 04:59:36 PM 29.0275 -82.3583 193° South 279 321 25,000  Level Jacksonville Center
Sun 05:00:36 PM 28.9544 -82.3825 196° South 279 321 25,000  Level Jacksonville Center
Sun 05:01:36 PM 28.8836 -82.3994 192° South 279 321 25,000  Level Jacksonville Center
Sun 05:02:36 PM 28.8106 -82.4211 195° South 274 315 25,000  Level Jacksonville Center
Sun 05:03:36 PM 28.7375 -82.4428 195° South 274 315 25,000  Level Jacksonville Center
Sun 05:04:36 PM 28.6731 -82.4547 189° South 274 315 25,000  Level Jacksonville Center
Sun 05:05:36 PM 28.5978 -82.4506 177° South 274 315 25,000  Level Jacksonville Center
Sun 05:06:36 PM 28.5228 -82.4436 175° South 274 315 25,000  Level Jacksonville Center
Sun 05:07:36 PM 28.4456 -82.4369 176° South 274 315 25,000  Level Jacksonville Center
Sun 05:09:29 PM 28.3044 -82.4514 185° South 267 307 25,000  Level Miami Center
Sun 05:10:29 PM 28.2347 -82.4739 196° South 267 307 25,000 -50 Level Miami Center
Sun 05:11:29 PM 28.1628 -82.4986 197° South 267 307 24,900  Descending Miami Center
Sun 05:12:29 PM 28.1164 -82.5622 230° Southwest 255 293 25,000  Climbing Miami Center
Sun 05:13:29 PM 28.0717 -82.6375 236° Southwest 265 305 24,900 -450 Descending Miami Center
Sun 05:14:29 PM 28.0236 -82.6914 225° Southwest 265 305 24,100 -900 Descending Miami Center
Sun 05:15:29 PM 27.9608 -82.7444 217° Southwest 271 312 23,100 -950 Descending Miami Center
Sun 05:16:29 PM 27.8800 -82.7872 205° Southwest 295 339 22,200 -950 Descending Miami Center
Sun 05:17:29 PM 27.8053 -82.8256 204° Southwest 300 345 21,200 -1,050 Descending Miami Center
Sun 05:18:29 PM 27.7250 -82.8542 198° South 300 345 20,100 -1,000 Descending Miami Center
Sun 05:19:29 PM 27.6458 -82.8525 179° South 300 345 19,200 -550 Descending Miami Center
Sun 05:20:29 PM 27.5667 -82.8483 177° South 300 345 19,000 -100 Descending Miami Center
Sun 05:21:29 PM 27.4856 -82.8439 177° South 276 318 19,000  Level Miami Center
Sun 05:22:29 PM 27.4153 -82.8217 164° South 266 306 19,000  Level Miami Center
Sun 05:23:29 PM 27.3461 -82.7831 154° Southeast 266 306 19,000  Level Miami Center
Sun 05:24:29 PM 27.2869 -82.7472 152° Southeast 271 312 19,000  Level Miami Center
Sun 05:25:29 PM 27.2114 -82.7061 154° Southeast 271 312 19,000 -450 Level Miami Center
Sun 05:26:29 PM 27.1422 -82.6653 152° Southeast 271 312 18,100 -850 Descending Miami Center
Sun 05:27:29 PM 27.0686 -82.6244 154° Southeast 276 318 17,300 -900 Descending Miami Center
Sun 05:28:29 PM 26.9950 -82.5858 155° Southeast 283 326 16,300 -1,050 Descending Miami Center
Sun 05:29:29 PM 26.9258 -82.5450 152° Southeast 288 331 15,200 -1,050 Descending Miami Center
Sun 05:30:29 PM 26.8564 -82.5044 152° Southeast 288 331 14,200 -1,000 Descending Miami Center
Sun 05:31:29 PM 26.7892 -82.4642 152° Southeast 283 326 13,200 -1,000 Descending Miami Center
Sun 05:32:29 PM 26.7217 -82.4236 152° Southeast 278 320 12,200 -1,000 Descending Miami Center
Sun 05:33:29 PM 26.6542 -82.3881 155° Southeast 278 320 11,200 -1,000 Descending Miami Center
Sun 05:34:29 PM 26.5914 -82.3408 146° Southeast 278 320 10,200 -1,000 Descending Miami Center
Sun 05:35:29 PM 26.5436 -82.2758 129° Southeast 272 313 9,200 -1,000 Descending Miami Center
Sun 05:36:29 PM 26.4958 -82.2133 130° Southeast 267 307 8,200 -1,000 Descending Miami Center
Sun 05:37:29 PM 26.4503 -82.1511 129° Southeast 267 307 7,200 -1,000 Descending Miami Center
Sun 05:39:00 PM 26.3829 -82.0604 124° Southeast  Level FlightAware Approximate
Sun 05:46:00 PM 26.1524 -81.7756 130° Southeast  Level Estimated
Sun 05:47:00 PM 26.1524 -81.7756 130° Southeast  Level Estimated
Sun 05:48:00 PM 26.1524 -81.7756 130° Southeast  Level Estimated
Sun 05:49:00 PM 26.1524 -81.7756 130° Southeast  Level Estimated
Sun 05:50:00 PM 26.1524 -81.7756 130° Southeast  Level Estimated
Sun 05:51:00 PM 26.1524 -81.7756 130° Southeast  Level Estimated
Sun 05:52:00 PM 26.1524 -81.7756 130° Southeast  Level Estimated
Sun 05:53:00 PM 26.1524 -81.7756 130° Southeast  Level Estimated

Login

Don't have an account? Register now (free) for customized features, flight alerts, and more!